Time;durP1;ratioP1;P1;durP2;ratioP2;P2;SDS_P1;SDS_P2;PMS_P1;PMS_P2;Temp;Humidity;BMP_temperature;BMP_pressure;BME280_temperature;BME280_humidity;BME280_pressure;Samples;Min_cycle;Max_cycle;Signal;HPM_P1;HPM_P2
2022/09/26 00:01:57;;;;;;;6.15;2.30;;;;;;;;;;4994992;28;20464;-91
2022/09/26 00:04:25;;;;;;;5.82;1.75;;;;;;;;;;4990802;28;20073;-92
2022/09/26 00:06:52;;;;;;;5.60;1.98;;;;;;;;;;4995587;28;20149;-94
2022/09/26 00:09:19;;;;;;;7.10;2.10;;;;;;;;;;4995862;28;20038;-91
2022/09/26 00:11:45;;;;;;;3.25;1.90;;;;;;;;;;4995183;28;20077;-89
2022/09/26 00:14:13;;;;;;;5.05;2.17;;;;;;;;;;4997011;28;20049;-96
2022/09/26 00:16:39;;;;;;;6.05;2.58;;;;;;;;;;4982039;28;20038;-92
2022/09/26 00:19:06;;;;;;;5.78;2.05;;;;;;;;;;4995549;28;20494;-91
2022/09/26 00:21:32;;;;;;;8.43;2.15;;;;;;;;;;5013516;28;20042;-96
2022/09/26 00:23:59;;;;;;;4.93;1.85;;;;;;;;;;4993768;28;20092;-94
2022/09/26 00:26:25;;;;;;;3.40;1.75;;;;;;;;;;5015159;28;20096;-95
2022/09/26 00:28:51;;;;;;;5.53;1.90;;;;;;;;;;4996431;28;20049;-93
2022/09/26 00:31:20;;;;;;;3.75;1.60;;;;;;;;;;5013134;28;20405;-93
2022/09/26 00:33:46;;;;;;;5.72;2.40;;;;;;;;;;4996491;28;20058;-91
2022/09/26 00:36:12;;;;;;;4.72;1.98;;;;;;;;;;4992816;28;20396;-93
2022/09/26 00:38:38;;;;;;;4.78;2.25;;;;;;;;;;4983303;28;20046;-93
2022/09/26 00:41:05;;;;;;;8.43;2.00;;;;;;;;;;4996779;28;20049;-94
2022/09/26 00:43:44;;;;;;;4.82;1.98;;;;;;;;;;4995505;28;20077;-94
2022/09/26 00:46:10;;;;;;;5.05;2.22;;;;;;;;;;4990671;28;20042;-93
2022/09/26 00:48:37;;;;;;;5.80;2.00;;;;;;;;;;4987996;28;20611;-91
2022/09/26 00:51:03;;;;;;;8.52;2.35;;;;;;;;;;5016465;28;20129;-95
2022/09/26 00:53:35;;;;;;;5.50;2.20;;;;;;;;;;5000776;28;20088;-92
2022/09/26 00:56:05;;;;;;;8.85;2.42;;;;;;;;;;5015971;28;20058;-92
2022/09/26 00:58:37;;;;;;;5.05;2.33;;;;;;;;;;4997521;28;20045;-94
2022/09/26 01:01:03;;;;;;;3.83;2.15;;;;;;;;;;4992230;28;20490;-93
2022/09/26 01:03:31;;;;;;;9.60;2.38;;;;;;;;;;4996939;28;20038;-91
2022/09/26 01:05:58;;;;;;;7.88;2.30;;;;;;;;;;4998454;28;20057;-93
2022/09/26 01:08:36;;;;;;;6.10;2.25;;;;;;;;;;4999587;28;20038;-95
2022/09/26 01:11:03;;;;;;;8.15;2.45;;;;;;;;;;4997880;28;20042;-90
2022/09/26 01:13:31;;;;;;;6.15;2.38;;;;;;;;;;5015544;28;20077;-92
2022/09/26 01:15:57;;;;;;;5.72;2.70;;;;;;;;;;5014963;28;20137;-90
2022/09/26 01:18:23;;;;;;;6.80;2.33;;;;;;;;;;4999608;28;20073;-88
2022/09/26 01:21:00;;;;;;;6.85;2.60;;;;;;;;;;5013246;28;20375;-89
2022/09/26 01:23:45;;;;;;;6.80;3.38;;;;;;;;;;4995186;28;20372;-91
2022/09/26 01:26:11;;;;;;;5.47;2.70;;;;;;;;;;5013644;28;20049;-87
2022/09/26 01:28:37;;;;;;;6.97;2.80;;;;;;;;;;5006901;28;20042;-88
2022/09/26 01:31:13;;;;;;;5.57;2.50;;;;;;;;;;5014846;28;20049;-89
2022/09/26 01:33:57;;;;;;;6.50;2.80;;;;;;;;;;4991225;28;20137;-92
2022/09/26 01:36:27;;;;;;;4.72;2.35;;;;;;;;;;4997277;28;20117;-93
2022/09/26 01:39:13;;;;;;;6.97;2.65;;;;;;;;;;4985856;28;20054;-89
2022/09/26 01:41:57;;;;;;;7.07;2.70;;;;;;;;;;5015250;28;20049;-89
2022/09/26 01:44:41;;;;;;;6.70;2.60;;;;;;;;;;4997011;28;20073;-89
2022/09/26 01:47:16;;;;;;;7.60;2.85;;;;;;;;;;5010350;28;20046;-88
2022/09/26 01:49:46;;;;;;;6.97;2.90;;;;;;;;;;4991061;28;20048;-91
2022/09/26 01:52:30;;;;;;;6.93;2.83;;;;;;;;;;4998244;28;20648;-90
2022/09/26 01:55:11;;;;;;;4.25;2.60;;;;;;;;;;4997493;28;20053;-89
2022/09/26 01:57:40;;;;;;;4.60;2.58;;;;;;;;;;4993062;28;20057;-91
2022/09/26 02:00:07;;;;;;;6.35;2.58;;;;;;;;;;4995029;28;20073;-89
2022/09/26 02:02:36;;;;;;;5.13;2.80;;;;;;;;;;4993551;28;20096;-91
2022/09/26 02:05:11;;;;;;;6.18;2.83;;;;;;;;;;4993681;28;20138;-91
2022/09/26 02:07:51;;;;;;;5.43;2.30;;;;;;;;;;4995030;28;20044;-93
2022/09/26 02:10:23;;;;;;;5.20;2.30;;;;;;;;;;5002542;28;20046;-90
2022/09/26 02:12:53;;;;;;;5.10;2.22;;;;;;;;;;4993666;28;20057;-92
2022/09/26 02:15:20;;;;;;;3.40;1.90;;;;;;;;;;4992856;28;20058;-93
2022/09/26 02:17:54;;;;;;;5.10;2.17;;;;;;;;;;4984240;28;20050;-92
2022/09/26 02:20:31;;;;;;;5.68;2.22;;;;;;;;;;4994666;28;20042;-91
2022/09/26 02:22:58;;;;;;;3.22;2.20;;;;;;;;;;5000885;28;20025;-90
2022/09/26 02:25:24;;;;;;;5.25;2.45;;;;;;;;;;5032170;28;20049;-88
2022/09/26 02:27:50;;;;;;;5.22;1.90;;;;;;;;;;5019738;28;20397;-90
2022/09/26 02:30:17;;;;;;;3.35;2.00;;;;;;;;;;4995070;28;20046;-88
2022/09/26 02:32:43;;;;;;;2.58;2.17;;;;;;;;;;4996199;28;20046;-91
2022/09/26 02:37:53;;;;;;;4.20;1.95;;;;;;;;;;5012285;28;20516;-90
2022/09/26 02:40:23;;;;;;;3.40;2.08;;;;;;;;;;5007508;28;20518;-89
2022/09/26 02:42:53;;;;;;;5.63;2.58;;;;;;;;;;4984204;28;20041;-91
2022/09/26 02:45:35;;;;;;;3.75;2.15;;;;;;;;;;5011749;28;20446;-89
2022/09/26 02:48:20;;;;;;;7.00;2.30;;;;;;;;;;4989016;28;20061;-87
2022/09/26 02:51:05;;;;;;;4.43;2.15;;;;;;;;;;4988251;28;20038;-87
2022/09/26 02:53:42;;;;;;;3.67;1.90;;;;;;;;;;5006935;28;20050;-90
2022/09/26 02:56:15;;;;;;;4.72;2.00;;;;;;;;;;4982007;28;20070;-93
2022/09/26 02:58:53;;;;;;;2.80;2.15;;;;;;;;;;4998387;28;20050;-91
2022/09/26 03:01:23;;;;;;;6.10;2.33;;;;;;;;;;5010863;28;20125;-89
2022/09/26 03:04:00;;;;;;;3.60;1.90;;;;;;;;;;5004199;28;20049;-90
2022/09/26 03:06:29;;;;;;;3.60;2.08;;;;;;;;;;5013089;28;20042;-91
2022/09/26 03:08:56;;;;;;;2.15;1.70;;;;;;;;;;5012770;28;20116;-90
2022/09/26 03:11:24;;;;;;;4.30;2.25;;;;;;;;;;4991548;28;20113;-89
2022/09/26 03:13:52;;;;;;;5.20;2.25;;;;;;;;;;5010347;28;20041;-88
2022/09/26 03:16:19;;;;;;;3.95;2.70;;;;;;;;;;4991848;28;20081;-89
2022/09/26 03:18:50;;;;;;;4.30;2.10;;;;;;;;;;4993051;28;20073;-88
2022/09/26 03:21:16;;;;;;;3.80;2.22;;;;;;;;;;5012410;28;20100;-89
2022/09/26 03:23:42;;;;;;;6.18;2.08;;;;;;;;;;5011132;28;20445;-90
2022/09/26 03:26:10;;;;;;;3.92;2.15;;;;;;;;;;4993710;28;20360;-91
2022/09/26 03:28:36;;;;;;;6.93;2.40;;;;;;;;;;4993649;28;20038;-91
2022/09/26 03:31:02;;;;;;;6.68;2.67;;;;;;;;;;5003581;28;20066;-89
2022/09/26 03:33:28;;;;;;;5.20;2.22;;;;;;;;;;4993326;28;20069;-91
2022/09/26 03:35:54;;;;;;;4.00;2.38;;;;;;;;;;4989495;28;20047;-90
2022/09/26 03:38:20;;;;;;;4.80;2.22;;;;;;;;;;5009429;28;20089;-91
2022/09/26 03:40:46;;;;;;;4.65;2.42;;;;;;;;;;4992742;28;20138;-89
2022/09/26 03:43:12;;;;;;;3.72;2.35;;;;;;;;;;4986952;28;20462;-88
2022/09/26 03:45:38;;;;;;;5.95;2.35;;;;;;;;;;4991884;28;20482;-87
2022/09/26 03:48:05;;;;;;;2.30;2.10;;;;;;;;;;4977372;28;20493;-91
2022/09/26 03:50:32;;;;;;;5.35;2.20;;;;;;;;;;4989153;28;20482;-89
2022/09/26 03:52:59;;;;;;;3.58;2.20;;;;;;;;;;5015216;28;20096;-93
2022/09/26 03:55:25;;;;;;;4.05;2.35;;;;;;;;;;5012912;28;20065;-91
2022/09/26 03:57:51;;;;;;;3.88;2.50;;;;;;;;;;4991268;28;20057;-90
2022/09/26 04:00:17;;;;;;;5.13;2.60;;;;;;;;;;5004196;28;20045;-87
2022/09/26 04:02:43;;;;;;;5.68;2.50;;;;;;;;;;4993303;28;20049;-89
2022/09/26 04:05:09;;;;;;;5.07;2.40;;;;;;;;;;4989023;28;20041;-90
2022/09/26 04:07:36;;;;;;;4.75;2.40;;;;;;;;;;5008414;28;20049;-88
2022/09/26 04:10:02;;;;;;;4.78;2.30;;;;;;;;;;4992983;28;20129;-88
2022/09/26 04:12:28;;;;;;;5.45;2.13;;;;;;;;;;4992570;28;20034;-87
2022/09/26 04:14:54;;;;;;;4.00;2.33;;;;;;;;;;4987592;28;20115;-88
2022/09/26 04:17:20;;;;;;;3.75;2.22;;;;;;;;;;4987339;28;20112;-89
2022/09/26 04:19:46;;;;;;;5.25;2.47;;;;;;;;;;5011303;28;20049;-89
2022/09/26 04:22:12;;;;;;;5.93;2.38;;;;;;;;;;5011143;28;20051;-87
2022/09/26 04:24:38;;;;;;;4.38;2.42;;;;;;;;;;5011994;28;20053;-88
2022/09/26 04:27:05;;;;;;;4.72;2.55;;;;;;;;;;5013280;28;20057;-89
2022/09/26 04:29:31;;;;;;;4.18;2.40;;;;;;;;;;4994121;28;20133;-88
2022/09/26 04:31:57;;;;;;;6.60;2.42;;;;;;;;;;4995739;28;20472;-92
2022/09/26 04:34:23;;;;;;;4.55;2.38;;;;;;;;;;4996879;28;20140;-89
2022/09/26 04:36:53;;;;;;;5.15;2.75;;;;;;;;;;5013278;28;20041;-88
2022/09/26 04:39:19;;;;;;;3.30;2.40;;;;;;;;;;4993825;28;20078;-88
2022/09/26 04:41:45;;;;;;;6.97;2.63;;;;;;;;;;5013882;28;20069;-89
2022/09/26 04:44:14;;;;;;;3.45;2.30;;;;;;;;;;4996261;28;20533;-88
2022/09/26 04:46:40;;;;;;;5.97;2.65;;;;;;;;;;5012178;28;20105;-90
2022/09/26 04:49:06;;;;;;;3.80;2.20;;;;;;;;;;4995721;28;20474;-90
2022/09/26 04:51:32;;;;;;;4.95;2.40;;;;;;;;;;4995791;28;20161;-89
2022/09/26 04:53:58;;;;;;;3.83;2.28;;;;;;;;;;4994982;28;20506;-89
2022/09/26 04:56:25;;;;;;;6.20;2.63;;;;;;;;;;5011698;28;20050;-86
2022/09/26 04:58:54;;;;;;;8.30;2.70;;;;;;;;;;5007940;28;20085;-86
2022/09/26 05:01:20;;;;;;;7.40;2.58;;;;;;;;;;5012511;28;20441;-88
2022/09/26 05:03:46;;;;;;;7.95;2.58;;;;;;;;;;5013917;28;20441;-85
2022/09/26 05:06:13;;;;;;;4.93;2.92;;;;;;;;;;4995832;28;20056;-87
2022/09/26 05:08:40;;;;;;;6.20;2.42;;;;;;;;;;5015163;28;20402;-86
2022/09/26 05:11:06;;;;;;;6.03;2.35;;;;;;;;;;5002392;28;20356;-87
2022/09/26 05:13:32;;;;;;;9.52;4.68;;;;;;;;;;4996005;28;20092;-87
2022/09/26 05:15:59;;;;;;;6.68;2.55;;;;;;;;;;5010164;28;20050;-85
2022/09/26 05:18:25;;;;;;;7.22;2.72;;;;;;;;;;4995078;28;20152;-86
2022/09/26 05:20:52;;;;;;;5.32;2.70;;;;;;;;;;5015592;28;20050;-87
2022/09/26 05:26:21;;;;;;;6.63;2.90;;;;;;;;;;5011868;28;20053;-87
2022/09/26 05:28:55;;;;;;;5.85;2.47;;;;;;;;;;4989447;28;20050;-86
2022/09/26 05:31:27;;;;;;;4.22;2.97;;;;;;;;;;4989389;28;20482;-84
2022/09/26 05:33:55;;;;;;;4.70;2.80;;;;;;;;;;5011454;28;20136;-87
2022/09/26 05:36:22;;;;;;;5.93;2.83;;;;;;;;;;5012363;28;20045;-86
2022/09/26 05:38:48;;;;;;;5.25;2.90;;;;;;;;;;5010433;28;20057;-86
2022/09/26 05:41:15;;;;;;;6.00;3.10;;;;;;;;;;4995731;28;20045;-86
2022/09/26 05:43:41;;;;;;;5.60;3.08;;;;;;;;;;4984749;28;20046;-89
2022/09/26 05:46:08;;;;;;;4.50;2.60;;;;;;;;;;5008427;28;20052;-91
2022/09/26 05:48:36;;;;;;;6.28;2.85;;;;;;;;;;5012470;28;20050;-88
2022/09/26 05:51:08;;;;;;;6.85;3.22;;;;;;;;;;5000061;28;20552;-90
2022/09/26 05:53:35;;;;;;;5.18;2.72;;;;;;;;;;5018018;28;20480;-88
2022/09/26 05:56:01;;;;;;;6.53;3.35;;;;;;;;;;4998211;28;20136;-89
2022/09/26 05:58:31;;;;;;;6.05;2.88;;;;;;;;;;4993027;28;20612;-87
2022/09/26 06:01:01;;;;;;;7.20;3.15;;;;;;;;;;5002881;28;20057;-89
2022/09/26 06:03:33;;;;;;;3.78;2.63;;;;;;;;;;4992487;28;20060;-87
2022/09/26 06:06:06;;;;;;;5.07;2.63;;;;;;;;;;5001680;28;20050;-90
2022/09/26 06:08:32;;;;;;;8.00;3.20;;;;;;;;;;5009946;28;20064;-89
2022/09/26 06:10:59;;;;;;;5.47;3.00;;;;;;;;;;4994780;28;20050;-88
2022/09/26 06:13:25;;;;;;;9.10;3.00;;;;;;;;;;4992999;28;20045;-87
2022/09/26 06:15:52;;;;;;;6.72;3.10;;;;;;;;;;5014687;28;20516;-88
2022/09/26 06:18:18;;;;;;;6.47;2.90;;;;;;;;;;4993581;28;20096;-89
2022/09/26 06:20:44;;;;;;;5.65;2.60;;;;;;;;;;5010573;28;20125;-88
2022/09/26 06:23:10;;;;;;;6.53;2.80;;;;;;;;;;5011182;28;20481;-91
2022/09/26 06:25:36;;;;;;;4.90;2.80;;;;;;;;;;4992973;28;20054;-89
2022/09/26 06:28:02;;;;;;;7.25;3.05;;;;;;;;;;4994207;28;20054;-88
2022/09/26 06:30:28;;;;;;;5.68;2.40;;;;;;;;;;5003171;28;20076;-90
2022/09/26 06:32:54;;;;;;;7.57;2.85;;;;;;;;;;4994064;28;20050;-90
2022/09/26 06:35:20;;;;;;;6.95;2.95;;;;;;;;;;4991995;28;20042;-87
2022/09/26 06:37:47;;;;;;;4.53;2.80;;;;;;;;;;4991444;28;20046;-86
2022/09/26 06:40:13;;;;;;;8.77;2.90;;;;;;;;;;5010473;28;20046;-88
2022/09/26 06:42:39;;;;;;;6.30;3.13;;;;;;;;;;4991521;28;20053;-87
2022/09/26 06:45:06;;;;;;;5.88;3.13;;;;;;;;;;4994408;28;20732;-85
2022/09/26 06:47:33;;;;;;;8.63;3.92;;;;;;;;;;5026426;28;20045;-86
2022/09/26 06:49:59;;;;;;;4.40;3.00;;;;;;;;;;5017750;28;20506;-89
2022/09/26 06:52:25;;;;;;;7.22;3.10;;;;;;;;;;4998419;28;20042;-87
2022/09/26 06:54:54;;;;;;;5.43;3.15;;;;;;;;;;5014380;28;20096;-87
2022/09/26 06:57:20;;;;;;;5.40;3.00;;;;;;;;;;5012919;28;20614;-86
2022/09/26 06:59:46;;;;;;;7.22;3.53;;;;;;;;;;4992038;28;20493;-86
2022/09/26 07:02:15;;;;;;;5.80;3.10;;;;;;;;;;5011656;28;20049;-83
2022/09/26 07:04:42;;;;;;;6.25;3.00;;;;;;;;;;4991559;28;20053;-88
2022/09/26 07:07:08;;;;;;;8.35;3.13;;;;;;;;;;4990314;28;20049;-91
2022/09/26 07:09:34;;;;;;;6.97;3.25;;;;;;;;;;4992968;28;20057;-85
2022/09/26 07:12:00;;;;;;;5.00;2.95;;;;;;;;;;4993925;28;20042;-87
2022/09/26 07:14:26;;;;;;;5.75;2.92;;;;;;;;;;4991423;28;20406;-87
2022/09/26 07:16:53;;;;;;;8.55;3.63;;;;;;;;;;5007913;28;20648;-89
2022/09/26 07:19:19;;;;;;;4.68;3.17;;;;;;;;;;4991546;28;20626;-91
2022/09/26 07:21:45;;;;;;;7.38;2.92;;;;;;;;;;4999922;28;20050;-87
2022/09/26 07:24:13;;;;;;;6.85;3.20;;;;;;;;;;4989729;28;20061;-85
2022/09/26 07:26:40;;;;;;;6.75;3.53;;;;;;;;;;4989659;28;20070;-87
2022/09/26 07:29:06;;;;;;;7.50;3.40;;;;;;;;;;5009774;28;20050;-88
2022/09/26 07:31:32;;;;;;;6.30;3.80;;;;;;;;;;5004049;28;20037;-82
2022/09/26 07:33:58;;;;;;;8.05;3.45;;;;;;;;;;5009968;28;20045;-86
2022/09/26 07:36:25;;;;;;;5.28;3.15;;;;;;;;;;4992367;28;21328;-86
2022/09/26 07:38:51;;;;;;;7.10;2.70;;;;;;;;;;5008012;28;20089;-86
2022/09/26 07:41:17;;;;;;;6.22;3.00;;;;;;;;;;4987057;28;20555;-86
2022/09/26 07:43:43;;;;;;;4.40;2.47;;;;;;;;;;4992658;28;20046;-86
2022/09/26 07:51:41;;;;;;;7.13;3.33;;;;;;;;;;4987600;28;20046;-86
2022/09/26 07:54:07;;;;;;;6.25;3.10;;;;;;;;;;4990824;28;20046;-93
2022/09/26 07:56:33;;;;;;;5.43;3.28;;;;;;;;;;4990530;28;20050;-86
2022/09/26 07:59:04;;;;;;;8.63;3.30;;;;;;;;;;4990558;28;20046;-88
2022/09/26 08:01:30;;;;;;;6.22;3.25;;;;;;;;;;4994436;28;20057;-85
2022/09/26 08:03:57;;;;;;;7.50;3.42;;;;;;;;;;4991560;28;20153;-86
2022/09/26 08:06:23;;;;;;;8.43;3.75;;;;;;;;;;4991684;28;20038;-86
2022/09/26 08:08:53;;;;;;;9.60;3.60;;;;;;;;;;4992673;28;20054;-84
2022/09/26 08:11:19;;;;;;;10.73;4.13;;;;;;;;;;4990644;28;20101;-84
2022/09/26 08:13:46;;;;;;;10.98;3.85;;;;;;;;;;4990695;28;20066;-82
2022/09/26 08:16:17;;;;;;;11.20;4.03;;;;;;;;;;4991947;28;20079;-82
2022/09/26 08:18:43;;;;;;;7.78;4.13;;;;;;;;;;4992212;28;20053;-82
2022/09/26 08:21:09;;;;;;;10.30;4.22;;;;;;;;;;4990412;28;20059;-82
2022/09/26 08:23:35;;;;;;;10.77;5.03;;;;;;;;;;4991038;28;20041;-82
2022/09/26 08:26:05;;;;;;;8.82;4.32;;;;;;;;;;4993355;28;20065;-81
2022/09/26 08:28:32;;;;;;;9.18;4.82;;;;;;;;;;4990634;28;20047;-81
2022/09/26 08:31:02;;;;;;;6.80;4.32;;;;;;;;;;4990075;28;20066;-84
2022/09/26 08:33:28;;;;;;;9.52;3.88;;;;;;;;;;4991681;28;20475;-83
2022/09/26 08:35:55;;;;;;;7.50;3.88;;;;;;;;;;4995613;28;20069;-84
2022/09/26 08:38:21;;;;;;;10.30;4.40;;;;;;;;;;5012698;28;20125;-83
2022/09/26 08:40:58;;;;;;;5.00;3.60;;;;;;;;;;4994922;28;20049;-82
2022/09/26 08:43:43;;;;;;;8.18;4.30;;;;;;;;;;5012389;28;20512;-82
2022/09/26 08:48:42;;;;;;;7.13;3.92;;;;;;;;;;5005225;28;20042;-82
2022/09/26 08:51:14;;;;;;;8.07;4.15;;;;;;;;;;5011854;28;20399;-83
2022/09/26 08:53:45;;;;;;;5.25;3.63;;;;;;;;;;4994205;28;20057;-82
2022/09/26 08:56:22;;;;;;;6.47;4.10;;;;;;;;;;5010417;28;20423;-82
2022/09/26 08:58:51;;;;;;;6.15;3.60;;;;;;;;;;4995061;28;20141;-81
2022/09/26 09:01:22;;;;;;;6.35;4.15;;;;;;;;;;5009867;28;20474;-82
2022/09/26 09:04:01;;;;;;;7.90;4.10;;;;;;;;;;4985788;28;20405;-83
2022/09/26 09:06:28;;;;;;;4.97;3.53;;;;;;;;;;4994569;28;20445;-83
2022/09/26 09:08:55;;;;;;;5.40;3.58;;;;;;;;;;4993987;28;20516;-83
2022/09/26 09:11:40;;;;;;;4.00;3.53;;;;;;;;;;4993013;28;20521;-82
2022/09/26 09:14:09;;;;;;;5.18;3.60;;;;;;;;;;4994257;28;20046;-82
2022/09/26 09:16:45;;;;;;;5.82;3.67;;;;;;;;;;5011082;28;20049;-86
2022/09/26 09:19:17;;;;;;;6.28;4.20;;;;;;;;;;5010078;28;20038;-82
2022/09/26 09:21:58;;;;;;;6.97;4.22;;;;;;;;;;4994017;28;20046;-81
2022/09/26 09:24:24;;;;;;;4.95;4.30;;;;;;;;;;5010505;28;21621;-85
2022/09/26 09:27:00;;;;;;;5.20;4.40;;;;;;;;;;5012860;28;20371;-81
2022/09/26 09:29:52;;;;;;;4.75;4.25;;;;;;;;;;5001128;28;20050;-82
2022/09/26 09:32:21;;;;;;;5.68;4.57;;;;;;;;;;4989876;28;20100;-81
2022/09/26 09:34:48;;;;;;;5.53;4.47;;;;;;;;;;4993812;28;20054;-82
2022/09/26 09:37:25;;;;;;;4.75;4.05;;;;;;;;;;5009893;28;20049;-82
2022/09/26 09:39:51;;;;;;;4.55;3.95;;;;;;;;;;5007226;28;20498;-82
2022/09/26 09:42:17;;;;;;;4.38;3.70;;;;;;;;;;4993592;28;20042;-84
2022/09/26 09:44:45;;;;;;;7.57;4.25;;;;;;;;;;4990233;28;20156;-83
2022/09/26 09:47:13;;;;;;;6.10;4.50;;;;;;;;;;5011379;28;20218;-82
2022/09/26 09:49:39;;;;;;;6.75;4.30;;;;;;;;;;5010904;28;20091;-83
2022/09/26 09:52:24;;;;;;;4.55;4.00;;;;;;;;;;4989981;28;20414;-82
2022/09/26 09:55:09;;;;;;;6.10;4.28;;;;;;;;;;5011919;28;20546;-83
2022/09/26 09:57:38;;;;;;;5.22;4.25;;;;;;;;;;4993171;28;20084;-82
2022/09/26 10:00:09;;;;;;;5.43;4.25;;;;;;;;;;4990772;28;20088;-82
2022/09/26 10:02:36;;;;;;;5.82;3.90;;;;;;;;;;4992067;28;20145;-82
2022/09/26 10:05:15;;;;;;;6.15;3.80;;;;;;;;;;5008118;28;20058;-82
2022/09/26 10:07:41;;;;;;;5.97;3.90;;;;;;;;;;5010547;28;20049;-83
2022/09/26 10:10:18;;;;;;;6.03;3.85;;;;;;;;;;4993069;28;20064;-83
2022/09/26 10:12:45;;;;;;;4.15;3.50;;;;;;;;;;5003037;28;20092;-82
2022/09/26 10:15:18;;;;;;;4.70;3.95;;;;;;;;;;4991626;28;20536;-82
2022/09/26 10:17:59;;;;;;;4.18;3.78;;;;;;;;;;4993671;28;20042;-81
2022/09/26 10:20:40;;;;;;;4.60;3.22;;;;;;;;;;4993148;28;20050;-83
2022/09/26 10:23:12;;;;;;;3.50;3.20;;;;;;;;;;4992932;28;20042;-82
2022/09/26 10:25:44;;;;;;;4.00;3.25;;;;;;;;;;4989806;28;20172;-82
2022/09/26 10:28:21;;;;;;;4.47;3.70;;;;;;;;;;4991417;28;20049;-83
2022/09/26 10:30:48;;;;;;;3.85;3.45;;;;;;;;;;5009797;28;20390;-82
2022/09/26 10:33:25;;;;;;;6.15;3.40;;;;;;;;;;5010190;28;20085;-83
2022/09/26 10:35:58;;;;;;;4.95;3.47;;;;;;;;;;4989621;28;20069;-83
2022/09/26 10:38:26;;;;;;;4.32;3.33;;;;;;;;;;5009348;28;20093;-83
2022/09/26 10:41:15;;;;;;;4.03;3.63;;;;;;;;;;5010240;28;20053;-83
2022/09/26 10:43:51;;;;;;;4.05;3.03;;;;;;;;;;4982887;28;20386;-83
2022/09/26 10:46:18;;;;;;;3.85;3.30;;;;;;;;;;4989225;28;20038;-83
2022/09/26 10:48:46;;;;;;;6.80;3.42;;;;;;;;;;4992238;28;20046;-83
2022/09/26 10:51:22;;;;;;;4.93;3.10;;;;;;;;;;5006703;28;20041;-84
2022/09/26 10:53:51;;;;;;;2.80;2.60;;;;;;;;;;5010673;28;20046;-84
2022/09/26 10:56:24;;;;;;;3.00;2.70;;;;;;;;;;4990671;28;20054;-80
2022/09/26 10:58:53;;;;;;;5.22;3.05;;;;;;;;;;4993428;28;20403;-81
2022/09/26 11:01:22;;;;;;;4.90;3.00;;;;;;;;;;5008040;28;20045;-82
2022/09/26 11:03:49;;;;;;;3.85;3.38;;;;;;;;;;4990875;28;20053;-81
2022/09/26 11:06:25;;;;;;;4.00;3.17;;;;;;;;;;4990016;28;20115;-81
2022/09/26 11:08:53;;;;;;;7.63;3.40;;;;;;;;;;4991263;28;20477;-82
2022/09/26 11:11:21;;;;;;;4.93;3.10;;;;;;;;;;4993044;28;20490;-82
2022/09/26 11:14:03;;;;;;;7.95;3.50;;;;;;;;;;4989433;28;20045;-84
2022/09/26 11:16:37;;;;;;;5.00;3.45;;;;;;;;;;4982938;28;20045;-84
2022/09/26 11:19:22;;;;;;;5.65;3.40;;;;;;;;;;5008073;28;20046;-85
2022/09/26 11:21:54;;;;;;;4.63;3.03;;;;;;;;;;4982821;28;20547;-84
2022/09/26 11:24:36;;;;;;;5.18;3.05;;;;;;;;;;4988188;28;20042;-86
2022/09/26 11:27:14;;;;;;;4.90;3.22;;;;;;;;;;4988299;28;20061;-85
2022/09/26 11:30:00;;;;;;;6.60;3.00;;;;;;;;;;4991187;28;20497;-85
2022/09/26 11:32:41;;;;;;;5.68;3.00;;;;;;;;;;5007978;28;20160;-85
2022/09/26 11:35:12;;;;;;;5.35;3.03;;;;;;;;;;4991293;28;20053;-86
2022/09/26 11:38:04;;;;;;;3.60;2.58;;;;;;;;;;4991824;28;20042;-87
2022/09/26 11:40:37;;;;;;;4.53;2.67;;;;;;;;;;4991759;28;20046;-88
2022/09/26 11:43:21;;;;;;;4.75;2.70;;;;;;;;;;5009788;28;20385;-89
2022/09/26 11:45:59;;;;;;;6.82;3.03;;;;;;;;;;5003406;28;20046;-87
2022/09/26 11:48:25;;;;;;;6.57;2.42;;;;;;;;;;4991644;28;20054;-88
2022/09/26 11:51:13;;;;;;;9.73;2.88;;;;;;;;;;5008714;28;20046;-84
2022/09/26 11:53:49;;;;;;;7.65;2.50;;;;;;;;;;4992035;28;20367;-86
2022/09/26 11:56:22;;;;;;;9.60;2.58;;;;;;;;;;5008032;28;20137;-84
2022/09/26 11:58:48;;;;;;;8.32;2.90;;;;;;;;;;5007846;28;20394;-87
2022/09/26 12:01:20;;;;;;;9.05;2.97;;;;;;;;;;4986236;28;20524;-86
2022/09/26 12:04:00;;;;;;;11.40;2.80;;;;;;;;;;5003705;28;20117;-84
2022/09/26 12:06:26;;;;;;;11.52;3.30;;;;;;;;;;4986945;28;20058;-85
2022/09/26 12:08:52;;;;;;;12.43;3.90;;;;;;;;;;4990894;28;20053;-84
2022/09/26 12:11:24;;;;;;;11.98;3.03;;;;;;;;;;4990178;28;20536;-84
2022/09/26 12:13:58;;;;;;;16.25;4.50;;;;;;;;;;4983787;28;20480;-83
2022/09/26 12:16:24;;;;;;;11.30;3.10;;;;;;;;;;5000489;28;20050;-87
2022/09/26 12:19:08;;;;;;;14.60;3.50;;;;;;;;;;4987080;28;20045;-83
2022/09/26 12:21:40;;;;;;;11.85;3.30;;;;;;;;;;5007969;28;20198;-82
2022/09/26 12:24:11;;;;;;;10.05;2.95;;;;;;;;;;5011140;28;20038;-81
2022/09/26 12:26:50;;;;;;;10.00;2.72;;;;;;;;;;5007924;28;20390;-81
2022/09/26 12:29:22;;;;;;;9.95;2.92;;;;;;;;;;4991542;28;20048;-81
2022/09/26 12:32:26;;;;;;;6.43;2.03;;;;;;;;;;5003677;28;20053;-81
2022/09/26 12:34:58;;;;;;;6.43;2.03;;;;;;;;;;4929989;29;20055;-81
2022/09/26 12:37:52;;;;;;;7.85;2.70;;;;;;;;;;4911431;29;20056;-80
2022/09/26 12:40:21;;;;;;;5.57;2.20;;;;;;;;;;4970077;28;20097;-80
2022/09/26 12:43:04;;;;;;;6.10;2.30;;;;;;;;;;5007970;28;20049;-80
2022/09/26 12:45:51;;;;;;;7.57;2.05;;;;;;;;;;5012078;28;20061;-80
2022/09/26 12:48:17;;;;;;;7.35;2.47;;;;;;;;;;5009845;28;20494;-80
2022/09/26 12:50:48;;;;;;;7.07;2.45;;;;;;;;;;5013345;28;20046;-81
2022/09/26 12:53:34;;;;;;;8.77;2.55;;;;;;;;;;4990058;28;20057;-83
2022/09/26 12:56:05;;;;;;;8.02;2.65;;;;;;;;;;5000879;28;20564;-82
2022/09/26 12:58:50;;;;;;;8.52;2.47;;;;;;;;;;5015066;28;20049;-83
2022/09/26 13:01:22;;;;;;;8.10;2.55;;;;;;;;;;4995606;28;20049;-82
2022/09/26 13:03:51;;;;;;;11.07;3.35;;;;;;;;;;4996916;28;20048;-81
2022/09/26 13:06:26;;;;;;;8.32;3.13;;;;;;;;;;5012662;28;20046;-82
2022/09/26 13:08:57;;;;;;;12.68;3.20;;;;;;;;;;4976809;28;20046;-81
2022/09/26 13:11:29;;;;;;;9.23;3.00;;;;;;;;;;5005150;28;20041;-81
2022/09/26 13:14:11;;;;;;;9.57;3.00;;;;;;;;;;4994757;28;20082;-81
2022/09/26 13:16:46;;;;;;;11.85;3.10;;;;;;;;;;4988740;28;20054;-82
2022/09/26 13:19:15;;;;;;;8.73;2.97;;;;;;;;;;4992394;28;20084;-84
2022/09/26 13:21:43;;;;;;;14.88;3.55;;;;;;;;;;4994156;28;20056;-82
2022/09/26 13:24:17;;;;;;;9.15;2.85;;;;;;;;;;5005466;28;20050;-83
2022/09/26 13:26:46;;;;;;;9.02;2.88;;;;;;;;;;4993115;28;20121;-83
2022/09/26 13:29:15;;;;;;;8.77;2.60;;;;;;;;;;5010844;28;20049;-83
2022/09/26 13:31:41;;;;;;;13.70;3.50;;;;;;;;;;4993889;28;20073;-80
2022/09/26 13:34:20;;;;;;;10.27;3.17;;;;;;;;;;4991665;28;20054;-81
2022/09/26 13:36:46;;;;;;;9.82;3.15;;;;;;;;;;5010867;28;20505;-81
2022/09/26 13:39:29;;;;;;;9.43;3.05;;;;;;;;;;4993712;28;20046;-82
2022/09/26 13:42:00;;;;;;;7.68;3.03;;;;;;;;;;4994441;28;20524;-81
2022/09/26 13:44:38;;;;;;;9.20;3.15;;;;;;;;;;4993764;28;20133;-80
2022/09/26 13:47:04;;;;;;;9.00;2.60;;;;;;;;;;5011559;28;20064;-80
2022/09/26 13:49:33;;;;;;;8.18;2.55;;;;;;;;;;4994208;28;20050;-81
2022/09/26 13:51:59;;;;;;;4.90;2.38;;;;;;;;;;5010156;28;20041;-80
2022/09/26 13:54:42;;;;;;;7.50;2.28;;;;;;;;;;4992932;28;20521;-80
2022/09/26 13:57:30;;;;;;;6.00;2.40;;;;;;;;;;4989167;28;20073;-82
2022/09/26 13:59:56;;;;;;;6.65;2.78;;;;;;;;;;5007433;28;20053;-81
2022/09/26 14:02:28;;;;;;;5.53;1.98;;;;;;;;;;4989437;28;20042;-81
2022/09/26 14:04:54;;;;;;;6.32;2.30;;;;;;;;;;4992973;28;20092;-81
2022/09/26 14:10:19;;;;;;;7.32;2.50;;;;;;;;;;4988680;28;20486;-80
2022/09/26 14:13:11;;;;;;;7.13;2.90;;;;;;;;;;4985262;28;20418;-81
2022/09/26 14:15:49;;;;;;;4.90;2.38;;;;;;;;;;4979067;28;20605;-81
2022/09/26 14:18:34;;;;;;;5.22;2.08;;;;;;;;;;5011178;28;20103;-81
2022/09/26 14:21:06;;;;;;;4.85;2.00;;;;;;;;;;4976546;28;20050;-81
2022/09/26 14:23:37;;;;;;;8.18;3.08;;;;;;;;;;4986840;28;20057;-80
2022/09/26 14:26:07;;;;;;;8.60;2.20;;;;;;;;;;4994752;28;20120;-80
2022/09/26 14:28:35;;;;;;;7.45;2.13;;;;;;;;;;4995589;28;20041;-81
2022/09/26 14:31:10;;;;;;;6.90;2.13;;;;;;;;;;4987673;28;20577;-78
2022/09/26 14:33:36;;;;;;;5.05;1.90;;;;;;;;;;4990325;28;20042;-81
2022/09/26 14:36:17;;;;;;;7.35;2.65;;;;;;;;;;5001259;28;20494;-80
2022/09/26 14:38:47;;;;;;;7.22;1.95;;;;;;;;;;4986716;28;20513;-81
2022/09/26 14:41:18;;;;;;;6.45;1.92;;;;;;;;;;4988557;28;20048;-79
2022/09/26 14:43:45;;;;;;;5.90;2.03;;;;;;;;;;4981791;28;20052;-80
2022/09/26 14:46:19;;;;;;;4.57;2.10;;;;;;;;;;4993882;28;20057;-79
2022/09/26 14:48:45;;;;;;;4.82;2.10;;;;;;;;;;4986563;28;20054;-80
2022/09/26 14:51:14;;;;;;;5.20;2.20;;;;;;;;;;4995274;28;20053;-80
2022/09/26 14:53:49;;;;;;;8.70;2.75;;;;;;;;;;5009392;28;20513;-79
2022/09/26 14:56:16;;;;;;;9.20;2.70;;;;;;;;;;5006320;28;20054;-80
2022/09/26 14:58:50;;;;;;;6.63;2.28;;;;;;;;;;4984908;28;20049;-79
2022/09/26 15:01:27;;;;;;;9.70;2.78;;;;;;;;;;5008195;28;20046;-77
2022/09/26 15:04:00;;;;;;;5.22;2.78;;;;;;;;;;4986872;28;20092;-80
2022/09/26 15:06:27;;;;;;;6.00;2.55;;;;;;;;;;4991085;28;20200;-81
2022/09/26 15:08:54;;;;;;;8.23;2.72;;;;;;;;;;4991844;28;20046;-81
2022/09/26 15:11:25;;;;;;;7.80;2.75;;;;;;;;;;4990753;28;20486;-80
2022/09/26 15:13:54;;;;;;;8.93;2.20;;;;;;;;;;4992771;28;20498;-80
2022/09/26 15:16:20;;;;;;;5.32;2.35;;;;;;;;;;4991419;28;20078;-79
2022/09/26 15:18:59;;;;;;;5.32;2.00;;;;;;;;;;5009751;28;20104;-80
2022/09/26 15:21:34;;;;;;;6.35;2.28;;;;;;;;;;4992231;28;20053;-80